メインページ
METAR-TAF:

METAR-TAF

空港 :

チェンナイ国際空港

チェンナイ, インド

緯度: 13-00N, 経度: 080-11E, 海抜: 10m

現時点の気象観測

当レポートは37分前の23:30(UTC)に作成
西/南西の風 7kt
気温 28°C
湿度 66%
気圧 1004 hPa
視程: 6000m
高度2000ftの雲はほとんどない
高度10000ftの雲は散在している

METAR: VOMM 162330Z 24007KT 6000 FEW020 SCT100 28/21 Q1004 NOSIG

時間: 05:37 (00:07 UTC)

予報

当レポートは1時間7分前の23:00(UTC)に作成
予報は17日の 00時(UTC)から 18日の 06時(UTC)まで有効
南西の風 10kt
視程: 6000m
高度2000ftの雲はほとんどない
高度10000ftの雲は散在している
17日の 03時(UTC)から 17日の 04時(UTC)まで徐々に
西/南西の風 10kt、最大20ktの突風を伴う
17日の 12時(UTC)から 17日の 13時(UTC)まで徐々に
南西の風 10kt
18日の 03時(UTC)から 18日の 04時(UTC)まで徐々に
西/南西の風 10kt、最大20ktの突風を伴う

TAF: VOMM 162300Z 1700/1806 23010KT 6000 FEW020 SCT100 BECMG 1703/1704 25010G20KT BECMG 1712/1713 23010KT BECMG 1803/1804 25010G20KT

4,000以上の空港の気象観測と天気予報(METAR報とTAF報)

利用可能な観測所は地図上に黄色い丸と赤い丸で示す。

丸の上にカーソルを重ねると観測所名を参照できる。

次にクリックすると気象観測と天気予報を参照できる。

マップの切り替え:黒色「×」印の緑ボタンをクリックして拡大、「-」印の緑ボタンをクリックして縮小、緑色の三角印をクリックして隣りの地図に切り替え


METAR-TAF: